Rockford, IL

7:37 PM CDT on August 27, 2014 (GMT -0500)
Rockford Plaza | Change Station
CLOSE
Current Station
Personal Weather Station
Location: Rockford, IL
Elevation: 787 ft
Nearby Weather Stations

Elev 787 ft 42.27 °N, 89.06 °W | Updated 29 seconds ago

Overcast
Overcast
73.2 °F
Feels Like 77 °F
N
0.0
Wind Variable Wind from NE
Gusts 0.0 mph

Today
High -- | Low -- °F
--% Chance of Precip.
Yesterday
High -- | Low -- °F
Precip. -- in
6:16 AM 7:38 PM
Waxing Crescent, 5% visible
Pressure 30.10 in
Visibility 10.0 miles
Clouds Few 18000 ft
Overcast 25000 ft
Heat Index 77 °F
Dew Point 53 °F
Humidity 49%
Rainfall 0.00 in
Snow Depth Not available.
UV 0 out of 12
Pollen 9.80 out of 12
Ozone Good
PM2.5 Good
Flu Activity Not available.
METAR KRFD 272354Z 06007KT 10SM FEW180 OVC250 24/16 A3011 RMK AO2 SLP192 T02440156 10267 20244 58014

More Conditions Fewer Conditions

Pressure 30.10 in
Visibility 10.0 miles
Clouds Few 18000 ft
Overcast 25000 ft
Heat Index 77 °F
Dew Point 53 °F
Humidity 49%
Rainfall 0.00 in
Snow Depth Not available.
UV 0 out of 12
Pollen 9.80 out of 12
Ozone Good
PM2.5 Good
Flu Activity Not available.
METAR KRFD 272354Z 06007KT 10SM FEW180 OVC250 24/16 A3011 RMK AO2 SLP192 T02440156 10267 20244 58014

More Conditions Fewer Conditions

10-Day Weather Forecast

Almanac

Astronomy

Aug. 27, 2014 Rise Set
Actual Time 6:16 AM CDT 7:38 PM CDT
Civil Twilight 5:47 AM CDT 8:07 PM CDT
Nautical Twilight 5:12 AM CDT 8:42 PM CDT
Astronomical Twilight 4:34 AM CDT 9:19 PM CDT
Moon 8:15 AM CDT (8/27) 8:27 PM CDT (8/27)
Length of Visible Light 14h 20m
Length of Day
13h 22m
Tomorrow will be 2m 41s shorter.
Waxing Crescent, 5% of the Moon is Illuminated
Today
Waxing Crescent
Sep 2
First Quarter
Sep 8
Full
Sep 15
Last Quarter
Sep 24
New

Today's Extremes

State Highs State Lows

Community

WunderPhotos

Upload Photos

1,747,836 photos uploaded!

Nearby

Air Quality

  Air Quality AQ Index Pollutant
Yesterday Good
PM2.5
Yesterday Good
OZONE
Current Good
PM2.5
Current Good
OZONE
Wednesday Good
PM2.5
Thursday Good
PM2.5

Snow Depth

Station Depth Elevation
No new snow has been reported.

Earthquake Activity

City Distance Mag. Time & Date
No recent earthquake activity has been reported nearby.
Minimum magnitude displayed is 2.5.

Coastal Water Temperatures

Place Temperature
No Stations Reporting

Nearby Weather Stations